Viedma, Argentina
Current Conditions -  °F | °C
As of 11:00 PM on Saturday 25 Oct 2014 (Local Time) from SAZN Reporting Station
Clear Clear  
Wind Chill: 66°   Ceiling: Unl
Heat Index: 66°   Visibility: 6mi
Dew Point: 57°   Wind: 3mph
Humidity: 73%   Direction: 250°WSW
Pressure: 29.8"   Gusts: NA
Location:  40.81°S, 63°W
Report Text: SAZN 260200Z 25003KT CAVOK 19/14 Q1009
Loading
Personal Weather Stations






























Interactive Weather Map
Tropical Storm Tracking
New forecast layout! Learn more

10-Day Weather Forecast

Advertisements
Track Severe Weather on mobile